createdAt,value
2017-03-28T00:00:23.184Z,17.84
2017-03-28T00:01:03.817Z,17.85
2017-03-28T00:01:44.440Z,17.84
2017-03-28T00:02:25.066Z,17.84
2017-03-28T00:03:05.692Z,17.82
2017-03-28T00:03:46.345Z,17.88
2017-03-28T00:04:26.993Z,17.81
2017-03-28T00:05:07.633Z,17.84
2017-03-28T00:05:48.257Z,17.82
2017-03-28T00:06:28.896Z,17.78
2017-03-28T00:07:09.567Z,17.81
2017-03-28T00:07:50.206Z,17.92
2017-03-28T00:08:30.836Z,17.81
2017-03-28T00:09:11.466Z,17.81
2017-03-28T00:09:52.102Z,17.87
2017-03-28T00:10:32.730Z,17.85
2017-03-28T00:11:13.366Z,17.84
2017-03-28T00:11:53.995Z,17.85
2017-03-28T00:12:34.621Z,17.81
2017-03-28T00:13:15.284Z,17.89
2017-03-28T00:13:55.914Z,17.82
2017-03-28T00:14:36.537Z,17.88
2017-03-28T00:15:17.178Z,17.88
2017-03-28T00:15:57.819Z,17.88
2017-03-28T00:16:38.486Z,17.81
2017-03-28T00:17:19.120Z,17.84
2017-03-28T00:17:59.751Z,17.81
2017-03-28T00:18:40.403Z,17.84
2017-03-28T00:19:21.047Z,17.79
2017-03-28T00:20:01.693Z,17.79
2017-03-28T00:20:42.303Z,17.84
2017-03-28T00:21:22.938Z,17.78
2017-03-28T00:22:03.573Z,17.84
2017-03-28T00:22:44.204Z,17.81
2017-03-28T00:23:24.850Z,17.87
2017-03-28T00:24:05.535Z,17.74
2017-03-28T00:24:46.183Z,17.84
2017-03-28T00:25:26.817Z,17.79
2017-03-28T00:26:07.576Z,17.79
2017-03-28T00:26:48.208Z,17.74
2017-03-28T00:27:28.847Z,17.74
2017-03-28T00:28:09.490Z,17.78
2017-03-28T00:28:50.141Z,17.71
2017-03-28T00:29:30.773Z,17.74
2017-03-28T00:30:11.400Z,17.79
2017-03-28T00:30:52.046Z,17.81
2017-03-28T00:31:32.697Z,17.81
2017-03-28T00:32:13.350Z,17.73
2017-03-28T00:32:53.994Z,17.78
2017-03-28T00:33:34.625Z,17.81
2017-03-28T00:34:15.264Z,17.81
2017-03-28T00:34:55.905Z,17.74
2017-03-28T00:35:36.546Z,17.88
2017-03-28T00:36:17.179Z,17.73
2017-03-28T00:36:57.814Z,17.79
2017-03-28T00:37:38.471Z,17.84
2017-03-28T00:38:19.125Z,17.84
2017-03-28T00:38:59.767Z,17.82
2017-03-28T00:39:40.427Z,17.81
2017-03-28T00:40:21.076Z,17.84
2017-03-28T00:41:01.732Z,17.84
2017-03-28T00:41:42.375Z,17.73
2017-03-28T00:42:23.014Z,17.71
2017-03-28T00:43:03.651Z,17.71
2017-03-28T00:43:44.295Z,17.71
2017-03-28T00:44:24.940Z,17.74
2017-03-28T00:45:05.572Z,17.69
2017-03-28T00:45:46.211Z,17.71
2017-03-28T00:46:26.842Z,17.74
2017-03-28T00:47:07.474Z,17.78
2017-03-28T00:47:48.121Z,17.81
2017-03-28T00:48:28.765Z,17.7
2017-03-28T00:49:09.399Z,17.76
2017-03-28T00:49:50.030Z,17.73
2017-03-28T00:50:30.698Z,17.81
2017-03-28T00:51:11.326Z,17.73
2017-03-28T00:51:51.952Z,17.69
2017-03-28T00:52:32.592Z,17.74
2017-03-28T00:53:13.217Z,17.7
2017-03-28T00:53:53.855Z,17.74
2017-03-28T00:54:34.491Z,17.67
2017-03-28T00:55:15.125Z,17.74
2017-03-28T00:55:55.760Z,17.78
2017-03-28T00:56:36.397Z,17.76
2017-03-28T00:57:17.046Z,17.74
2017-03-28T00:57:57.693Z,17.74
2017-03-28T00:58:38.339Z,17.7
2017-03-28T00:59:18.980Z,17.74
2017-03-28T00:59:59.626Z,17.79
2017-03-28T01:00:40.329Z,17.76
2017-03-28T01:01:20.979Z,17.79
2017-03-28T01:02:01.613Z,17.7
2017-03-28T01:02:42.245Z,17.79
2017-03-28T01:03:22.887Z,17.74
2017-03-28T01:04:03.525Z,17.76
2017-03-28T01:04:44.161Z,17.78
2017-03-28T01:05:24.801Z,17.76
2017-03-28T01:06:05.459Z,17.71
2017-03-28T01:06:46.087Z,17.7
2017-03-28T01:07:26.719Z,17.7
2017-03-28T01:08:07.351Z,17.74
2017-03-28T01:08:47.990Z,17.76
2017-03-28T01:09:28.639Z,17.74
2017-03-28T01:10:09.284Z,17.74
2017-03-28T01:10:49.935Z,17.73
2017-03-28T01:11:30.554Z,17.74
2017-03-28T01:12:11.187Z,17.74
2017-03-28T01:12:51.848Z,17.73
2017-03-28T01:13:32.495Z,17.7
2017-03-28T01:14:13.139Z,17.69
2017-03-28T01:14:53.791Z,17.7
2017-03-28T01:15:34.428Z,17.78
2017-03-28T01:16:15.067Z,17.74
2017-03-28T01:16:55.700Z,17.71
2017-03-28T01:17:36.325Z,17.74
2017-03-28T01:18:16.957Z,17.7
2017-03-28T01:18:57.592Z,17.78
2017-03-28T01:19:38.229Z,17.73
2017-03-28T01:20:18.877Z,17.81
2017-03-28T01:20:59.508Z,17.79
2017-03-28T01:21:40.141Z,17.76
2017-03-28T01:22:20.780Z,17.74
2017-03-28T01:23:01.411Z,17.74
2017-03-28T01:23:42.043Z,17.76
2017-03-28T01:24:22.667Z,17.73
2017-03-28T01:25:03.305Z,17.73
2017-03-28T01:25:43.939Z,17.71
2017-03-28T01:26:24.591Z,17.71
2017-03-28T01:27:05.219Z,17.73
2017-03-28T01:27:45.850Z,17.84
2017-03-28T01:28:26.509Z,17.74
2017-03-28T01:29:07.144Z,17.73
2017-03-28T01:29:47.778Z,17.76
2017-03-28T01:30:28.408Z,17.73
2017-03-28T01:31:09.047Z,17.73
2017-03-28T01:31:49.693Z,17.76
2017-03-28T01:32:30.355Z,17.74
2017-03-28T01:33:10.984Z,17.71
2017-03-28T01:33:51.638Z,17.74
2017-03-28T01:34:32.288Z,17.7
2017-03-28T01:35:12.935Z,17.79
2017-03-28T01:35:53.574Z,17.79
2017-03-28T01:36:34.210Z,17.81
2017-03-28T01:37:14.849Z,17.71
2017-03-28T01:37:55.490Z,17.78
2017-03-28T01:38:36.135Z,17.71
2017-03-28T01:39:16.771Z,17.64
2017-03-28T01:39:57.420Z,17.71
2017-03-28T01:40:38.061Z,17.69
2017-03-28T01:41:18.703Z,17.74
2017-03-28T01:41:59.331Z,17.7
2017-03-28T01:42:39.974Z,17.7
2017-03-28T01:43:20.612Z,17.71
2017-03-28T01:44:01.253Z,17.66
2017-03-28T01:44:41.899Z,17.66
2017-03-28T01:45:22.522Z,17.67
2017-03-28T01:46:03.147Z,17.76
2017-03-28T01:46:43.787Z,17.71
2017-03-28T01:47:24.424Z,17.64
2017-03-28T01:48:05.063Z,17.79
2017-03-28T01:48:45.685Z,17.7
2017-03-28T01:49:26.309Z,17.7
2017-03-28T01:50:06.949Z,17.63
2017-03-28T01:50:47.584Z,17.67
2017-03-28T01:51:28.221Z,17.78
2017-03-28T01:52:08.871Z,17.76
2017-03-28T01:52:49.508Z,17.74
2017-03-28T01:53:30.162Z,17.73
2017-03-28T01:54:10.818Z,17.69
2017-03-28T01:54:51.474Z,17.69
2017-03-28T01:55:32.100Z,17.73
2017-03-28T01:56:12.740Z,17.79
2017-03-28T01:56:53.376Z,17.73
2017-03-28T01:57:34.015Z,17.69
2017-03-28T01:58:14.650Z,17.84
2017-03-28T01:58:55.291Z,17.66
2017-03-28T01:59:35.916Z,17.73
2017-03-28T02:00:16.548Z,17.79
2017-03-28T02:00:57.177Z,17.71
2017-03-28T02:01:37.800Z,17.71
2017-03-28T02:02:18.426Z,17.66
2017-03-28T02:02:59.047Z,17.73
2017-03-28T02:03:39.707Z,17.67
2017-03-28T02:04:20.369Z,17.71
2017-03-28T02:05:01.003Z,17.62
2017-03-28T02:05:41.637Z,17.73
2017-03-28T02:06:22.308Z,17.66
2017-03-28T02:07:02.962Z,17.78
2017-03-28T02:07:43.602Z,17.63
2017-03-28T02:08:24.228Z,17.73
2017-03-28T02:09:04.874Z,17.64
2017-03-28T02:09:45.530Z,17.62
2017-03-28T02:10:26.182Z,17.7
2017-03-28T02:11:06.833Z,17.63
2017-03-28T02:11:47.484Z,17.62
2017-03-28T02:12:28.127Z,17.71
2017-03-28T02:13:08.782Z,17.67
2017-03-28T02:13:49.425Z,17.73
2017-03-28T02:14:30.051Z,17.71
2017-03-28T02:15:10.699Z,17.7
2017-03-28T02:15:51.335Z,17.59
2017-03-28T02:16:31.970Z,17.71
2017-03-28T02:17:12.599Z,17.67
2017-03-28T02:17:53.274Z,17.69
2017-03-28T02:18:33.908Z,17.59
2017-03-28T02:19:14.563Z,17.69
2017-03-28T02:19:55.197Z,17.62
2017-03-28T02:20:35.844Z,17.62
2017-03-28T02:21:16.477Z,17.62
2017-03-28T02:21:57.119Z,17.59
2017-03-28T02:22:37.748Z,17.63
2017-03-28T02:23:18.381Z,17.7
2017-03-28T02:23:59.022Z,17.62
2017-03-28T02:24:39.680Z,17.64
2017-03-28T02:25:20.326Z,17.64
2017-03-28T02:26:00.953Z,17.67
2017-03-28T02:26:41.643Z,17.69
2017-03-28T02:27:22.272Z,17.55
2017-03-28T02:28:02.914Z,17.66
2017-03-28T02:28:43.551Z,17.62
2017-03-28T02:29:24.225Z,17.69
2017-03-28T02:30:04.848Z,17.63
2017-03-28T02:30:45.485Z,17.62
2017-03-28T02:31:26.139Z,17.7
2017-03-28T02:32:06.780Z,17.62
2017-03-28T02:32:47.415Z,17.71
2017-03-28T02:33:28.068Z,17.59
2017-03-28T02:34:08.730Z,17.57
2017-03-28T02:34:49.380Z,17.64
2017-03-28T02:35:30.024Z,17.64
2017-03-28T02:36:10.672Z,17.64
2017-03-28T02:36:51.303Z,17.64
2017-03-28T02:37:31.937Z,17.63
2017-03-28T02:38:12.576Z,17.64
2017-03-28T02:38:53.216Z,17.64
2017-03-28T02:39:33.857Z,17.66
2017-03-28T02:40:14.489Z,17.64
2017-03-28T02:40:55.136Z,17.59
2017-03-28T02:41:35.796Z,17.59
2017-03-28T02:42:16.448Z,17.64
2017-03-28T02:42:57.071Z,17.64
2017-03-28T02:43:37.704Z,17.7
2017-03-28T02:44:18.332Z,17.69
2017-03-28T02:44:58.990Z,17.64
2017-03-28T02:45:39.622Z,17.66
2017-03-28T02:46:20.258Z,17.57
2017-03-28T02:47:00.888Z,17.59
2017-03-28T02:47:41.530Z,17.7
2017-03-28T02:48:22.182Z,17.64
2017-03-28T02:49:02.829Z,17.63
2017-03-28T02:49:43.497Z,17.57
2017-03-28T02:50:24.131Z,17.63
2017-03-28T02:51:04.772Z,17.64
2017-03-28T02:51:45.412Z,17.67
2017-03-28T02:52:26.072Z,17.59
2017-03-28T02:53:06.723Z,17.64
2017-03-28T02:53:47.362Z,17.64
2017-03-28T02:54:27.997Z,17.62
2017-03-28T02:55:08.634Z,17.66
2017-03-28T02:55:49.276Z,17.59
2017-03-28T02:56:29.909Z,17.64
2017-03-28T02:57:10.542Z,17.66
2017-03-28T02:57:51.187Z,17.63
2017-03-28T02:58:31.825Z,17.63
2017-03-28T02:59:12.462Z,17.62
2017-03-28T02:59:53.115Z,17.63
2017-03-28T03:00:33.766Z,17.64
2017-03-28T03:01:14.392Z,17.7
2017-03-28T03:01:55.023Z,17.63
2017-03-28T03:02:35.658Z,17.54
2017-03-28T03:03:16.302Z,17.67
2017-03-28T03:03:56.949Z,17.63
2017-03-28T03:04:37.586Z,17.55
2017-03-28T03:05:18.226Z,17.63
2017-03-28T03:05:58.856Z,17.69
2017-03-28T03:06:39.498Z,17.59
2017-03-28T03:07:20.123Z,17.69
2017-03-28T03:08:00.756Z,17.63
2017-03-28T03:08:41.402Z,17.57
2017-03-28T03:09:22.057Z,17.63
2017-03-28T03:10:02.731Z,17.69
2017-03-28T03:10:43.363Z,17.57
2017-03-28T03:11:23.987Z,17.57
2017-03-28T03:12:04.630Z,17.63
2017-03-28T03:12:45.277Z,17.62
2017-03-28T03:13:25.917Z,17.64
2017-03-28T03:14:06.567Z,17.62
2017-03-28T03:14:47.196Z,17.66
2017-03-28T03:15:27.830Z,17.67
2017-03-28T03:16:08.468Z,17.57
2017-03-28T03:16:49.106Z,17.67
2017-03-28T03:17:29.748Z,17.55
2017-03-28T03:18:10.394Z,17.57
2017-03-28T03:18:51.053Z,17.57
2017-03-28T03:19:31.705Z,17.55
2017-03-28T03:20:12.352Z,17.59
2017-03-28T03:20:53.008Z,17.62
2017-03-28T03:21:33.671Z,17.57
2017-03-28T03:22:14.290Z,17.67
2017-03-28T03:22:54.926Z,17.62
2017-03-28T03:23:35.589Z,17.55
2017-03-28T03:24:16.229Z,17.55
2017-03-28T03:24:56.868Z,17.54
2017-03-28T03:25:37.488Z,17.54
2017-03-28T03:26:18.122Z,17.57
2017-03-28T03:26:58.760Z,17.55
2017-03-28T03:27:39.390Z,17.63
2017-03-28T03:28:20.030Z,17.57
2017-03-28T03:29:00.668Z,17.66
2017-03-28T03:29:41.311Z,17.54
2017-03-28T03:30:21.939Z,17.62
2017-03-28T03:31:02.567Z,17.59
2017-03-28T03:31:43.199Z,17.62
2017-03-28T03:32:23.836Z,17.53
2017-03-28T03:33:04.476Z,17.62
2017-03-28T03:33:45.111Z,17.55
2017-03-28T03:34:25.760Z,17.54
2017-03-28T03:35:06.406Z,17.57
2017-03-28T03:35:47.051Z,17.57
2017-03-28T03:36:27.672Z,17.55
2017-03-28T03:37:08.317Z,17.55
2017-03-28T03:37:48.945Z,17.53
2017-03-28T03:38:29.574Z,17.55
2017-03-28T03:39:10.201Z,17.57
2017-03-28T03:39:50.827Z,17.51
2017-03-28T03:40:31.471Z,17.57
2017-03-28T03:41:12.109Z,17.62
2017-03-28T03:41:52.782Z,17.54
2017-03-28T03:42:33.428Z,17.55
2017-03-28T03:43:14.090Z,17.57
2017-03-28T03:43:54.765Z,17.55
2017-03-28T03:44:35.391Z,17.51
2017-03-28T03:45:16.023Z,17.57
2017-03-28T03:45:56.666Z,17.55
2017-03-28T03:46:37.287Z,17.59
2017-03-28T03:47:17.910Z,17.53
2017-03-28T03:47:58.565Z,17.53
2017-03-28T03:48:39.206Z,17.57
2017-03-28T03:49:19.864Z,17.57
2017-03-28T03:50:00.511Z,17.59
2017-03-28T03:50:41.142Z,17.55
2017-03-28T03:51:21.786Z,17.55
2017-03-28T03:52:02.435Z,17.62
2017-03-28T03:52:43.087Z,17.51
2017-03-28T03:53:23.713Z,17.59
2017-03-28T03:54:04.348Z,17.55
2017-03-28T03:54:44.977Z,17.55
2017-03-28T03:55:25.641Z,17.63
2017-03-28T03:56:06.264Z,17.59
2017-03-28T03:56:46.917Z,17.59
2017-03-28T03:57:27.521Z,17.55
2017-03-28T03:58:08.163Z,17.53
2017-03-28T03:58:48.793Z,17.51
2017-03-28T03:59:29.434Z,17.47
2017-03-28T04:00:10.111Z,17.53
2017-03-28T04:00:50.718Z,17.59
2017-03-28T04:01:31.362Z,17.5
2017-03-28T04:02:11.988Z,17.57
2017-03-28T04:02:52.626Z,17.53
2017-03-28T04:03:33.296Z,17.53
2017-03-28T04:04:13.926Z,17.48
2017-03-28T04:04:54.561Z,17.48
2017-03-28T04:05:35.186Z,17.48
2017-03-28T04:06:15.813Z,17.47
2017-03-28T04:06:56.470Z,17.5
2017-03-28T04:07:37.102Z,17.51
2017-03-28T04:08:17.768Z,17.47
2017-03-28T04:08:58.398Z,17.47
2017-03-28T04:09:39.050Z,17.59
2017-03-28T04:10:19.694Z,17.53
2017-03-28T04:11:00.380Z,17.51
2017-03-28T04:11:41.034Z,17.59
2017-03-28T04:12:21.672Z,17.47
2017-03-28T04:13:02.327Z,17.5
2017-03-28T04:13:42.973Z,17.46
2017-03-28T04:14:23.619Z,17.44
2017-03-28T04:15:04.260Z,17.47
2017-03-28T04:15:44.914Z,17.48
2017-03-28T04:16:25.564Z,17.48
2017-03-28T04:17:06.225Z,17.48
2017-03-28T04:17:46.867Z,17.51
2017-03-28T04:18:27.500Z,17.51
2017-03-28T04:19:08.143Z,17.51
2017-03-28T04:19:48.780Z,17.53
2017-03-28T04:20:29.438Z,17.53
2017-03-28T04:21:10.088Z,17.47
2017-03-28T04:21:50.704Z,17.44
2017-03-28T04:22:31.353Z,17.48
2017-03-28T04:23:11.980Z,17.48
2017-03-28T04:23:52.617Z,17.46
2017-03-28T04:24:33.263Z,17.47
2017-03-28T04:25:13.924Z,17.53
2017-03-28T04:25:54.545Z,17.48
2017-03-28T04:26:35.191Z,17.54
2017-03-28T04:27:15.825Z,17.5
2017-03-28T04:27:56.481Z,17.5
2017-03-28T04:28:37.120Z,17.48
2017-03-28T04:29:17.744Z,17.5
2017-03-28T04:29:58.383Z,17.43
2017-03-28T04:30:39.032Z,17.53
2017-03-28T04:31:19.688Z,17.46
2017-03-28T04:32:00.307Z,17.47
2017-03-28T04:32:40.969Z,17.48
2017-03-28T04:33:21.605Z,17.46
2017-03-28T04:34:02.256Z,17.53
2017-03-28T04:34:42.887Z,17.5
2017-03-28T04:35:23.525Z,17.48
2017-03-28T04:36:04.191Z,17.46
2017-03-28T04:36:44.825Z,17.46
2017-03-28T04:37:25.464Z,17.46
2017-03-28T04:38:06.109Z,17.48
2017-03-28T04:38:46.766Z,17.5
2017-03-28T04:39:27.432Z,17.48
2017-03-28T04:40:08.063Z,17.43
2017-03-28T04:40:48.717Z,17.47
2017-03-28T04:41:29.358Z,17.44
2017-03-28T04:42:09.985Z,17.48
2017-03-28T04:42:50.621Z,17.51
2017-03-28T04:43:31.283Z,17.47
2017-03-28T04:44:11.919Z,17.47
2017-03-28T04:44:52.555Z,17.44
2017-03-28T04:45:33.209Z,17.47
2017-03-28T04:46:13.850Z,17.43
2017-03-28T04:46:54.492Z,17.43
2017-03-28T04:47:35.142Z,17.47
2017-03-28T04:48:15.760Z,17.47
2017-03-28T04:48:56.402Z,17.46
2017-03-28T04:49:37.033Z,17.53
2017-03-28T04:50:17.666Z,17.43
2017-03-28T04:50:58.331Z,17.46
2017-03-28T04:51:38.923Z,17.48
2017-03-28T04:52:19.595Z,17.46
2017-03-28T04:53:00.241Z,17.47
2017-03-28T04:53:40.888Z,17.5
2017-03-28T04:54:21.528Z,17.41
2017-03-28T04:55:02.159Z,17.43
2017-03-28T04:55:42.800Z,17.51
2017-03-28T04:56:23.432Z,17.43
2017-03-28T04:57:04.083Z,17.41
2017-03-28T04:57:44.707Z,17.5
2017-03-28T04:58:25.359Z,17.5
2017-03-28T04:59:05.997Z,17.44
2017-03-28T04:59:46.629Z,17.46
2017-03-28T05:00:27.288Z,17.51
2017-03-28T05:01:07.942Z,17.47
2017-03-28T05:01:48.583Z,17.43
2017-03-28T05:02:29.212Z,17.44
2017-03-28T05:03:09.844Z,17.43
2017-03-28T05:03:50.504Z,17.4
2017-03-28T05:04:31.144Z,17.48
2017-03-28T05:05:11.768Z,17.46
2017-03-28T05:05:52.434Z,17.48
2017-03-28T05:06:33.091Z,17.48
2017-03-28T05:07:13.722Z,17.46
2017-03-28T05:07:54.367Z,17.48
2017-03-28T05:08:35.007Z,17.44
2017-03-28T05:09:15.660Z,17.46
2017-03-28T05:09:56.309Z,17.44
2017-03-28T05:10:36.949Z,17.46
2017-03-28T05:11:17.584Z,17.48
2017-03-28T05:11:58.221Z,17.46
2017-03-28T05:12:38.864Z,17.44
2017-03-28T05:13:19.512Z,17.46
2017-03-28T05:14:00.170Z,17.41
2017-03-28T05:14:40.815Z,17.5
2017-03-28T05:15:21.448Z,17.43
2017-03-28T05:16:02.093Z,17.41
2017-03-28T05:16:42.745Z,17.41
2017-03-28T05:17:23.386Z,17.47
2017-03-28T05:18:04.015Z,17.51
2017-03-28T05:18:44.647Z,17.46
2017-03-28T05:19:25.296Z,17.44
2017-03-28T05:20:05.944Z,17.48
2017-03-28T05:20:46.562Z,17.48
2017-03-28T05:21:27.200Z,17.44
2017-03-28T05:22:07.826Z,17.44
2017-03-28T05:22:48.458Z,17.5
2017-03-28T05:23:29.087Z,17.41
2017-03-28T05:24:09.710Z,17.43
2017-03-28T05:24:50.341Z,17.38
2017-03-28T05:25:30.980Z,17.47
2017-03-28T05:26:11.622Z,17.47
2017-03-28T05:26:52.248Z,17.4
2017-03-28T05:27:32.894Z,17.43
2017-03-28T05:28:13.558Z,17.47
2017-03-28T05:28:54.218Z,17.4
2017-03-28T05:29:34.872Z,17.38
2017-03-28T05:30:15.511Z,17.44
2017-03-28T05:30:56.149Z,17.5
2017-03-28T05:31:36.774Z,17.41
2017-03-28T05:32:17.419Z,17.48
2017-03-28T05:32:58.054Z,17.41
2017-03-28T05:33:38.687Z,17.46
2017-03-28T05:34:19.354Z,17.43
2017-03-28T05:35:00.001Z,17.43
2017-03-28T05:35:40.635Z,17.47
2017-03-28T05:36:21.274Z,17.41
2017-03-28T05:37:01.908Z,17.41
2017-03-28T05:37:42.539Z,17.46
2017-03-28T05:38:23.184Z,17.4
2017-03-28T05:39:03.824Z,17.38
2017-03-28T05:39:44.448Z,17.38
2017-03-28T05:40:25.085Z,17.41
2017-03-28T05:41:05.711Z,17.38
2017-03-28T05:41:46.367Z,17.43
2017-03-28T05:42:26.989Z,17.5
2017-03-28T05:43:07.619Z,17.41
2017-03-28T05:43:48.266Z,17.38
2017-03-28T05:44:28.927Z,17.41
2017-03-28T05:45:09.575Z,17.41
2017-03-28T05:45:50.222Z,17.38
2017-03-28T05:46:30.862Z,17.48
2017-03-28T05:47:11.505Z,17.41
2017-03-28T05:47:52.152Z,17.4
2017-03-28T05:48:32.808Z,17.41
2017-03-28T05:49:13.452Z,17.4
2017-03-28T05:49:54.123Z,17.43
2017-03-28T05:50:34.776Z,17.41
2017-03-28T05:51:15.409Z,17.51
2017-03-28T05:51:56.051Z,17.41
2017-03-28T05:52:36.694Z,17.44
2017-03-28T05:53:17.349Z,17.46
2017-03-28T05:53:57.985Z,17.43
2017-03-28T05:54:38.614Z,17.46
2017-03-28T05:55:19.248Z,17.36
2017-03-28T05:55:59.892Z,17.4
2017-03-28T05:56:40.533Z,17.4
2017-03-28T05:57:21.175Z,17.44
2017-03-28T05:58:01.820Z,17.4
2017-03-28T05:58:42.450Z,17.4
2017-03-28T05:59:23.130Z,17.38
2017-03-28T06:00:03.786Z,17.41
2017-03-28T06:00:44.418Z,17.4
2017-03-28T06:01:25.055Z,17.4
2017-03-28T06:02:05.686Z,17.43
2017-03-28T06:02:46.353Z,17.4
2017-03-28T06:03:26.980Z,17.44
2017-03-28T06:04:07.656Z,17.38
2017-03-28T06:04:48.291Z,17.4
2017-03-28T06:05:28.923Z,17.4
2017-03-28T06:06:09.556Z,17.44
2017-03-28T06:06:50.201Z,17.44
2017-03-28T06:07:30.832Z,17.41
2017-03-28T06:08:11.477Z,17.44
2017-03-28T06:08:52.114Z,17.36
2017-03-28T06:09:32.745Z,17.4
2017-03-28T06:10:13.388Z,17.4
2017-03-28T06:10:54.018Z,17.35
2017-03-28T06:11:34.677Z,17.41
2017-03-28T06:12:15.313Z,17.41
2017-03-28T06:12:55.961Z,17.38
2017-03-28T06:13:36.610Z,17.4
2017-03-28T06:14:17.237Z,17.4
2017-03-28T06:14:57.883Z,17.41
2017-03-28T06:15:38.525Z,17.33
2017-03-28T06:16:19.165Z,17.4
2017-03-28T06:16:59.804Z,17.41
2017-03-28T06:17:40.474Z,17.43
2017-03-28T06:18:21.096Z,17.41
2017-03-28T06:19:01.792Z,17.36
2017-03-28T06:19:42.464Z,17.4
2017-03-28T06:20:23.107Z,17.44
2017-03-28T06:21:03.741Z,17.36
2017-03-28T06:21:44.379Z,17.41
2017-03-28T06:22:25.030Z,17.43
2017-03-28T06:23:05.689Z,17.41
2017-03-28T06:23:46.339Z,17.43
2017-03-28T06:24:27.012Z,17.4
2017-03-28T06:25:07.637Z,17.33
2017-03-28T06:25:48.266Z,17.33
2017-03-28T06:26:28.907Z,17.4
2017-03-28T06:27:09.531Z,17.44
2017-03-28T06:27:50.182Z,17.4
2017-03-28T06:28:30.844Z,17.4
2017-03-28T06:29:11.486Z,17.44
2017-03-28T06:29:52.114Z,17.38
2017-03-28T06:30:32.755Z,17.4
2017-03-28T06:31:13.406Z,17.38
2017-03-28T06:31:54.051Z,17.35
2017-03-28T06:32:34.698Z,17.44
2017-03-28T06:33:15.343Z,17.33
2017-03-28T06:33:55.972Z,17.38
2017-03-28T06:34:36.608Z,17.41
2017-03-28T06:35:17.273Z,17.47
2017-03-28T06:35:57.977Z,17.47
2017-03-28T06:36:38.623Z,17.48
2017-03-28T06:37:19.270Z,17.38
2017-03-28T06:37:59.924Z,17.41
2017-03-28T06:38:40.561Z,17.35
2017-03-28T06:39:21.200Z,17.4
2017-03-28T06:40:01.855Z,17.35
2017-03-28T06:40:42.516Z,17.41
2017-03-28T06:41:23.161Z,17.48
2017-03-28T06:42:03.800Z,17.4
2017-03-28T06:42:44.446Z,17.35
2017-03-28T06:43:25.103Z,17.35
2017-03-28T06:44:05.747Z,17.38
2017-03-28T06:44:46.400Z,17.38
2017-03-28T06:45:27.039Z,17.4
2017-03-28T06:46:07.670Z,17.44
2017-03-28T06:46:48.310Z,17.32
2017-03-28T06:47:28.941Z,17.44
2017-03-28T06:48:09.586Z,17.41
2017-03-28T06:48:50.229Z,17.43
2017-03-28T06:49:30.868Z,17.43
2017-03-28T06:50:11.514Z,17.44
2017-03-28T06:50:52.172Z,17.41
2017-03-28T06:51:32.812Z,17.38
2017-03-28T06:52:13.445Z,17.35
2017-03-28T06:52:54.097Z,17.4
2017-03-28T06:53:34.739Z,17.36
2017-03-28T06:54:15.373Z,17.33
2017-03-28T06:54:56.010Z,17.44
2017-03-28T06:55:36.657Z,17.38
2017-03-28T06:56:17.290Z,17.44
2017-03-28T06:56:57.913Z,17.4
2017-03-28T06:57:38.552Z,17.41
2017-03-28T06:58:19.216Z,17.43
2017-03-28T06:58:59.891Z,17.46
2017-03-28T06:59:40.514Z,17.44
2017-03-28T07:00:21.195Z,17.4
2017-03-28T07:01:01.836Z,17.46
2017-03-28T07:01:42.473Z,17.44
2017-03-28T07:02:23.113Z,17.33
2017-03-28T07:03:03.749Z,17.43
2017-03-28T07:03:44.394Z,17.4
2017-03-28T07:04:25.023Z,17.43
2017-03-28T07:05:05.671Z,17.47
2017-03-28T07:05:46.333Z,17.4
2017-03-28T07:06:26.971Z,17.4
2017-03-28T07:07:07.650Z,17.32
2017-03-28T07:07:48.289Z,17.4
2017-03-28T07:08:28.946Z,17.46
2017-03-28T07:09:09.581Z,17.44
2017-03-28T07:09:50.218Z,17.4
2017-03-28T07:10:30.882Z,17.32
2017-03-28T07:11:11.517Z,17.44
2017-03-28T07:11:52.173Z,17.43
2017-03-28T07:12:32.821Z,17.4
2017-03-28T07:13:13.501Z,17.3
2017-03-28T07:13:54.171Z,17.38
2017-03-28T07:14:34.823Z,17.35
2017-03-28T07:15:15.451Z,17.36
2017-03-28T07:15:56.075Z,17.38
2017-03-28T07:16:36.713Z,17.36
2017-03-28T07:17:17.352Z,17.35
2017-03-28T07:17:58.005Z,17.36
2017-03-28T07:18:38.644Z,17.43
2017-03-28T07:19:19.280Z,17.38
2017-03-28T07:19:59.925Z,17.46
2017-03-28T07:20:40.549Z,17.4
2017-03-28T07:21:21.168Z,17.44
2017-03-28T07:22:01.826Z,17.47
2017-03-28T07:22:42.471Z,17.41
2017-03-28T07:23:23.125Z,17.46
2017-03-28T07:24:03.781Z,17.44
2017-03-28T07:24:44.420Z,17.46
2017-03-28T07:25:25.066Z,17.43
2017-03-28T07:26:05.728Z,17.4
2017-03-28T07:26:46.376Z,17.44
2017-03-28T07:27:27.032Z,17.44
2017-03-28T07:28:07.680Z,17.38
2017-03-28T07:28:48.338Z,17.4
2017-03-28T07:29:28.952Z,17.36
2017-03-28T07:30:09.586Z,17.4
2017-03-28T07:30:50.217Z,17.44
2017-03-28T07:31:30.857Z,17.4
2017-03-28T07:32:11.488Z,17.44
2017-03-28T07:32:52.140Z,17.43
2017-03-28T07:33:32.809Z,17.4
2017-03-28T07:34:13.443Z,17.4
2017-03-28T07:34:54.077Z,17.35
2017-03-28T07:35:34.709Z,17.43
2017-03-28T07:36:15.398Z,17.43
2017-03-28T07:36:56.033Z,17.4
2017-03-28T07:37:36.684Z,17.47
2017-03-28T07:38:17.317Z,17.4
2017-03-28T07:38:57.975Z,17.35
2017-03-28T07:39:38.613Z,17.33
2017-03-28T07:40:19.324Z,17.41
2017-03-28T07:40:59.979Z,17.41
2017-03-28T07:41:40.628Z,17.33
2017-03-28T07:42:21.290Z,17.43
2017-03-28T07:43:01.924Z,17.35
2017-03-28T07:43:42.589Z,17.38
2017-03-28T07:44:23.242Z,17.36
2017-03-28T07:45:03.881Z,17.47
2017-03-28T07:45:44.524Z,17.38
2017-03-28T07:46:25.196Z,17.36
2017-03-28T07:47:05.839Z,17.44
2017-03-28T07:47:46.530Z,17.4
2017-03-28T07:48:27.223Z,17.4
2017-03-28T07:49:07.849Z,17.43
2017-03-28T07:49:48.485Z,17.44
2017-03-28T07:50:29.126Z,17.38
2017-03-28T07:51:09.762Z,17.4
2017-03-28T07:51:50.391Z,17.48
2017-03-28T07:52:31.026Z,17.38
2017-03-28T07:53:11.683Z,17.4
2017-03-28T07:53:52.336Z,17.46
2017-03-28T07:54:32.972Z,17.43
2017-03-28T07:55:13.618Z,17.43
2017-03-28T07:55:54.255Z,17.4
2017-03-28T07:56:34.895Z,17.41
2017-03-28T07:57:15.545Z,17.44
2017-03-28T07:57:56.175Z,17.4
2017-03-28T07:58:36.824Z,17.46
2017-03-28T07:59:17.493Z,17.38
2017-03-28T07:59:58.129Z,17.4
2017-03-28T08:00:38.774Z,17.46
2017-03-28T08:01:19.412Z,17.41
2017-03-28T08:02:00.053Z,17.41
2017-03-28T08:02:40.681Z,17.47
2017-03-28T08:03:21.319Z,17.43
2017-03-28T08:04:01.961Z,17.43
2017-03-28T08:04:42.639Z,17.47
2017-03-28T08:05:23.269Z,17.4
2017-03-28T08:06:03.895Z,17.44
2017-03-28T08:06:44.565Z,17.43
2017-03-28T08:07:25.178Z,17.43
2017-03-28T08:08:05.804Z,17.43
2017-03-28T08:08:46.440Z,17.46
2017-03-28T08:09:27.103Z,17.47
2017-03-28T08:10:07.726Z,17.5
2017-03-28T08:10:48.376Z,17.5
2017-03-28T08:11:29.004Z,17.47
2017-03-28T08:12:09.669Z,17.47
2017-03-28T08:12:50.289Z,17.41
2017-03-28T08:13:30.957Z,17.46
2017-03-28T08:14:11.590Z,17.46
2017-03-28T08:14:52.249Z,17.48
2017-03-28T08:15:32.890Z,17.44
2017-03-28T08:16:13.518Z,17.47
2017-03-28T08:16:54.163Z,17.46
2017-03-28T08:17:34.788Z,17.47
2017-03-28T08:18:15.482Z,17.55
2017-03-28T08:18:56.150Z,17.59
2017-03-28T08:19:36.784Z,17.59
2017-03-28T08:20:17.417Z,17.54
2017-03-28T08:20:58.067Z,17.55
2017-03-28T08:21:38.689Z,17.57
2017-03-28T08:22:19.326Z,17.55
2017-03-28T08:22:59.954Z,17.57
2017-03-28T08:23:40.594Z,17.57
2017-03-28T08:24:21.225Z,17.53
2017-03-28T08:25:01.905Z,17.59
2017-03-28T08:25:42.565Z,17.59
2017-03-28T08:26:23.208Z,17.59
2017-03-28T08:27:03.870Z,17.63
2017-03-28T08:27:44.507Z,17.63
2017-03-28T08:28:25.139Z,17.59
2017-03-28T08:29:05.812Z,17.55
2017-03-28T08:29:46.483Z,17.67
2017-03-28T08:30:27.108Z,17.64
2017-03-28T08:31:07.738Z,17.64
2017-03-28T08:31:48.386Z,17.69
2017-03-28T08:32:29.009Z,17.63
2017-03-28T08:33:09.706Z,17.67
2017-03-28T08:33:50.345Z,17.66
2017-03-28T08:34:30.974Z,17.63
2017-03-28T08:35:11.632Z,17.69
2017-03-28T08:35:52.285Z,17.74
2017-03-28T08:36:32.921Z,17.73
2017-03-28T08:37:13.561Z,17.79
2017-03-28T08:37:54.209Z,17.79
2017-03-28T08:38:34.856Z,17.78
2017-03-28T08:39:15.548Z,17.84
2017-03-28T08:39:56.195Z,17.91
2017-03-28T08:40:36.834Z,17.91
2017-03-28T08:41:17.477Z,17.88
2017-03-28T08:41:58.108Z,17.92
2017-03-28T08:42:38.751Z,17.97
2017-03-28T08:43:19.400Z,17.99
2017-03-28T08:44:00.045Z,18.04
2017-03-28T08:44:40.685Z,17.97
2017-03-28T08:45:21.322Z,18.07